sensor_id;sensor_type;location;lat;lon;timestamp;temperature;humidity
18906;DHT22;9585;51.018;4.282;2023-02-03T00:00:37;8.50;99.90
18906;DHT22;9585;51.018;4.282;2023-02-03T00:03:07;8.40;99.90
18906;DHT22;9585;51.018;4.282;2023-02-03T00:05:40;8.40;99.90
18906;DHT22;9585;51.018;4.282;2023-02-03T00:08:12;8.40;99.90
18906;DHT22;9585;51.018;4.282;2023-02-03T00:10:42;8.50;99.90
18906;DHT22;9585;51.018;4.282;2023-02-03T00:13:13;8.40;99.90
18906;DHT22;9585;51.018;4.282;2023-02-03T00:15:42;8.40;99.90
18906;DHT22;9585;51.018;4.282;2023-02-03T00:18:21;8.40;99.90
18906;DHT22;9585;51.018;4.282;2023-02-03T00:20:51;8.50;99.90
18906;DHT22;9585;51.018;4.282;2023-02-03T00:23:24;8.50;99.90
18906;DHT22;9585;51.018;4.282;2023-02-03T00:25:57;8.50;99.90
18906;DHT22;9585;51.018;4.282;2023-02-03T00:28:32;8.50;99.90
18906;DHT22;9585;51.018;4.282;2023-02-03T00:31:04;8.50;99.90
18906;DHT22;9585;51.018;4.282;2023-02-03T00:33:35;8.60;99.90
18906;DHT22;9585;51.018;4.282;2023-02-03T00:36:04;8.60;99.90
18906;DHT22;9585;51.018;4.282;2023-02-03T00:38:37;8.60;99.90
18906;DHT22;9585;51.018;4.282;2023-02-03T00:41:09;8.60;99.90
18906;DHT22;9585;51.018;4.282;2023-02-03T00:43:39;8.60;99.90
18906;DHT22;9585;51.018;4.282;2023-02-03T00:46:10;8.60;99.90
18906;DHT22;9585;51.018;4.282;2023-02-03T00:51:51;8.60;99.90
18906;DHT22;9585;51.018;4.282;2023-02-03T00:54:21;8.50;99.90
18906;DHT22;9585;51.018;4.282;2023-02-03T00:56:49;8.50;99.90
18906;DHT22;9585;51.018;4.282;2023-02-03T00:59:17;8.50;99.90
18906;DHT22;9585;51.018;4.282;2023-02-03T01:01:44;8.50;99.90
18906;DHT22;9585;51.018;4.282;2023-02-03T01:04:28;8.50;99.90
18906;DHT22;9585;51.018;4.282;2023-02-03T01:06:58;8.60;99.90
18906;DHT22;9585;51.018;4.282;2023-02-03T01:09:30;8.60;99.90
18906;DHT22;9585;51.018;4.282;2023-02-03T01:12:02;8.60;99.90
18906;DHT22;9585;51.018;4.282;2023-02-03T01:14:30;8.60;99.90
18906;DHT22;9585;51.018;4.282;2023-02-03T01:17:00;8.60;99.90
18906;DHT22;9585;51.018;4.282;2023-02-03T01:19:30;8.70;99.90
18906;DHT22;9585;51.018;4.282;2023-02-03T01:21:57;8.60;99.90
18906;DHT22;9585;51.018;4.282;2023-02-03T01:24:27;8.60;99.90
18906;DHT22;9585;51.018;4.282;2023-02-03T01:26:55;8.70;99.90
18906;DHT22;9585;51.018;4.282;2023-02-03T01:29:24;8.70;99.90
18906;DHT22;9585;51.018;4.282;2023-02-03T01:31:52;8.70;99.90
18906;DHT22;9585;51.018;4.282;2023-02-03T01:34:19;8.70;99.90
18906;DHT22;9585;51.018;4.282;2023-02-03T01:36:46;8.70;99.90
18906;DHT22;9585;51.018;4.282;2023-02-03T01:39:23;8.70;99.90
18906;DHT22;9585;51.018;4.282;2023-02-03T01:41:54;8.60;99.90
18906;DHT22;9585;51.018;4.282;2023-02-03T01:44:42;8.60;99.90
18906;DHT22;9585;51.018;4.282;2023-02-03T01:47:15;8.60;99.90
18906;DHT22;9585;51.018;4.282;2023-02-03T01:49:45;8.60;99.90
18906;DHT22;9585;51.018;4.282;2023-02-03T01:52:15;8.70;99.90
18906;DHT22;9585;51.018;4.282;2023-02-03T01:54:44;8.60;99.90
18906;DHT22;9585;51.018;4.282;2023-02-03T01:57:19;8.70;99.90
18906;DHT22;9585;51.018;4.282;2023-02-03T01:59:50;8.60;99.90
18906;DHT22;9585;51.018;4.282;2023-02-03T02:02:19;8.70;99.90
18906;DHT22;9585;51.018;4.282;2023-02-03T02:04:51;8.60;99.90
18906;DHT22;9585;51.018;4.282;2023-02-03T02:07:20;8.60;99.90
18906;DHT22;9585;51.018;4.282;2023-02-03T02:09:49;8.60;99.90
18906;DHT22;9585;51.018;4.282;2023-02-03T02:12:17;8.70;99.90
18906;DHT22;9585;51.018;4.282;2023-02-03T02:14:45;8.60;99.90
18906;DHT22;9585;51.018;4.282;2023-02-03T02:17:40;8.60;99.90
18906;DHT22;9585;51.018;4.282;2023-02-03T02:20:41;8.70;99.90
18906;DHT22;9585;51.018;4.282;2023-02-03T02:23:43;8.70;99.90
18906;DHT22;9585;51.018;4.282;2023-02-03T02:26:49;8.60;99.90
18906;DHT22;9585;51.018;4.282;2023-02-03T02:29:55;8.60;99.90
18906;DHT22;9585;51.018;4.282;2023-02-03T02:32:42;8.60;99.90
18906;DHT22;9585;51.018;4.282;2023-02-03T02:35:16;8.50;99.90
18906;DHT22;9585;51.018;4.282;2023-02-03T02:37:51;8.50;99.90
18906;DHT22;9585;51.018;4.282;2023-02-03T02:40:24;8.70;99.90
18906;DHT22;9585;51.018;4.282;2023-02-03T02:43:07;8.70;99.90
18906;DHT22;9585;51.018;4.282;2023-02-03T02:45:48;8.70;99.90
18906;DHT22;9585;51.018;4.282;2023-02-03T02:48:22;8.60;99.90
18906;DHT22;9585;51.018;4.282;2023-02-03T02:50:55;8.60;99.90
18906;DHT22;9585;51.018;4.282;2023-02-03T02:53:25;8.70;99.90
18906;DHT22;9585;51.018;4.282;2023-02-03T02:55:55;8.70;99.90
18906;DHT22;9585;51.018;4.282;2023-02-03T02:58:24;8.60;99.90
18906;DHT22;9585;51.018;4.282;2023-02-03T03:00:52;8.60;99.90
18906;DHT22;9585;51.018;4.282;2023-02-03T03:03:31;8.50;99.90
18906;DHT22;9585;51.018;4.282;2023-02-03T03:06:05;8.60;99.90
18906;DHT22;9585;51.018;4.282;2023-02-03T03:08:40;8.60;99.90
18906;DHT22;9585;51.018;4.282;2023-02-03T03:11:13;8.70;99.90
18906;DHT22;9585;51.018;4.282;2023-02-03T03:13:45;8.70;99.90
18906;DHT22;9585;51.018;4.282;2023-02-03T03:16:14;8.60;99.90
18906;DHT22;9585;51.018;4.282;2023-02-03T03:18:49;8.60;99.90
18906;DHT22;9585;51.018;4.282;2023-02-03T03:21:24;8.60;99.90
18906;DHT22;9585;51.018;4.282;2023-02-03T03:23:56;8.60;99.90
18906;DHT22;9585;51.018;4.282;2023-02-03T03:26:31;8.60;99.90
18906;DHT22;9585;51.018;4.282;2023-02-03T03:29:06;8.60;99.90
18906;DHT22;9585;51.018;4.282;2023-02-03T03:31:37;8.60;99.90
18906;DHT22;9585;51.018;4.282;2023-02-03T03:47:38;8.60;99.90
18906;DHT22;9585;51.018;4.282;2023-02-03T03:50:10;8.60;99.90
18906;DHT22;9585;51.018;4.282;2023-02-03T03:52:40;8.60;99.90
18906;DHT22;9585;51.018;4.282;2023-02-03T03:55:09;8.60;99.90
18906;DHT22;9585;51.018;4.282;2023-02-03T03:57:41;8.60;99.90
18906;DHT22;9585;51.018;4.282;2023-02-03T04:00:14;8.70;99.90
18906;DHT22;9585;51.018;4.282;2023-02-03T04:02:46;8.70;99.90
18906;DHT22;9585;51.018;4.282;2023-02-03T04:05:16;8.80;99.90
18906;DHT22;9585;51.018;4.282;2023-02-03T04:07:45;8.70;99.90
18906;DHT22;9585;51.018;4.282;2023-02-03T04:10:19;8.70;99.90
18906;DHT22;9585;51.018;4.282;2023-02-03T04:12:47;8.60;99.90
18906;DHT22;9585;51.018;4.282;2023-02-03T04:15:14;8.70;99.90
18906;DHT22;9585;51.018;4.282;2023-02-03T04:17:43;8.60;99.90
18906;DHT22;9585;51.018;4.282;2023-02-03T04:20:11;8.70;99.90
18906;DHT22;9585;51.018;4.282;2023-02-03T04:22:39;8.60;99.90
18906;DHT22;9585;51.018;4.282;2023-02-03T04:25:07;8.60;99.90
18906;DHT22;9585;51.018;4.282;2023-02-03T04:27:34;8.60;99.90
18906;DHT22;9585;51.018;4.282;2023-02-03T04:30:02;8.60;99.90
18906;DHT22;9585;51.018;4.282;2023-02-03T04:32:30;8.60;99.90
18906;DHT22;9585;51.018;4.282;2023-02-03T04:34:58;8.60;99.90
18906;DHT22;9585;51.018;4.282;2023-02-03T04:37:26;8.60;99.90
18906;DHT22;9585;51.018;4.282;2023-02-03T04:39:54;8.70;99.90
18906;DHT22;9585;51.018;4.282;2023-02-03T04:42:22;8.70;99.90
18906;DHT22;9585;51.018;4.282;2023-02-03T04:44:49;8.70;99.90
18906;DHT22;9585;51.018;4.282;2023-02-03T04:47:17;8.70;99.90
18906;DHT22;9585;51.018;4.282;2023-02-03T04:49:45;8.70;99.90
18906;DHT22;9585;51.018;4.282;2023-02-03T04:52:13;8.70;99.90
18906;DHT22;9585;51.018;4.282;2023-02-03T04:54:41;8.70;99.90
18906;DHT22;9585;51.018;4.282;2023-02-03T04:57:08;8.70;99.90
18906;DHT22;9585;51.018;4.282;2023-02-03T04:59:35;8.70;99.90
18906;DHT22;9585;51.018;4.282;2023-02-03T05:02:03;8.70;99.90
18906;DHT22;9585;51.018;4.282;2023-02-03T05:04:30;8.70;99.90
18906;DHT22;9585;51.018;4.282;2023-02-03T05:06:58;8.70;99.90
18906;DHT22;9585;51.018;4.282;2023-02-03T05:09:27;8.70;99.90
18906;DHT22;9585;51.018;4.282;2023-02-03T05:11:55;8.60;99.90
18906;DHT22;9585;51.018;4.282;2023-02-03T05:14:22;8.60;99.90
18906;DHT22;9585;51.018;4.282;2023-02-03T05:16:49;8.60;99.90
18906;DHT22;9585;51.018;4.282;2023-02-03T05:19:17;8.60;99.90
18906;DHT22;9585;51.018;4.282;2023-02-03T05:21:44;8.60;99.90
18906;DHT22;9585;51.018;4.282;2023-02-03T05:24:11;8.70;99.90
18906;DHT22;9585;51.018;4.282;2023-02-03T05:26:42;8.60;99.90
18906;DHT22;9585;51.018;4.282;2023-02-03T05:29:12;8.60;99.90
18906;DHT22;9585;51.018;4.282;2023-02-03T05:31:39;8.60;99.90
18906;DHT22;9585;51.018;4.282;2023-02-03T05:34:06;8.60;99.90
18906;DHT22;9585;51.018;4.282;2023-02-03T05:36:33;8.60;99.90
18906;DHT22;9585;51.018;4.282;2023-02-03T05:39:01;8.70;99.90
18906;DHT22;9585;51.018;4.282;2023-02-03T05:41:28;8.70;99.90
18906;DHT22;9585;51.018;4.282;2023-02-03T05:44:14;8.60;99.90
18906;DHT22;9585;51.018;4.282;2023-02-03T05:46:41;8.70;99.90
18906;DHT22;9585;51.018;4.282;2023-02-03T05:49:10;8.60;99.90
18906;DHT22;9585;51.018;4.282;2023-02-03T05:51:37;8.60;99.90
18906;DHT22;9585;51.018;4.282;2023-02-03T05:54:05;8.70;99.90
18906;DHT22;9585;51.018;4.282;2023-02-03T05:56:32;8.70;99.90
18906;DHT22;9585;51.018;4.282;2023-02-03T05:59:00;8.60;99.90
18906;DHT22;9585;51.018;4.282;2023-02-03T06:01:28;8.60;99.90
18906;DHT22;9585;51.018;4.282;2023-02-03T06:03:56;8.70;99.90
18906;DHT22;9585;51.018;4.282;2023-02-03T06:06:23;8.60;99.90
18906;DHT22;9585;51.018;4.282;2023-02-03T06:08:51;8.70;99.90
18906;DHT22;9585;51.018;4.282;2023-02-03T06:11:21;8.70;99.90
18906;DHT22;9585;51.018;4.282;2023-02-03T06:13:50;8.60;99.90
18906;DHT22;9585;51.018;4.282;2023-02-03T06:16:17;8.50;99.90
18906;DHT22;9585;51.018;4.282;2023-02-03T06:18:45;8.50;99.90
18906;DHT22;9585;51.018;4.282;2023-02-03T06:21:13;8.50;99.90
18906;DHT22;9585;51.018;4.282;2023-02-03T06:23:40;8.50;99.90
18906;DHT22;9585;51.018;4.282;2023-02-03T06:26:07;8.60;99.90
18906;DHT22;9585;51.018;4.282;2023-02-03T06:28:34;8.60;99.90
18906;DHT22;9585;51.018;4.282;2023-02-03T06:31:03;8.60;99.90
18906;DHT22;9585;51.018;4.282;2023-02-03T06:33:30;8.60;99.90
18906;DHT22;9585;51.018;4.282;2023-02-03T06:35:59;8.60;99.90
18906;DHT22;9585;51.018;4.282;2023-02-03T06:38:27;8.60;99.90
18906;DHT22;9585;51.018;4.282;2023-02-03T06:40:54;8.50;99.90
18906;DHT22;9585;51.018;4.282;2023-02-03T06:43:22;8.50;99.90
18906;DHT22;9585;51.018;4.282;2023-02-03T06:45:49;8.40;99.90
18906;DHT22;9585;51.018;4.282;2023-02-03T06:48:16;8.50;99.90
18906;DHT22;9585;51.018;4.282;2023-02-03T06:50:44;8.40;99.90
18906;DHT22;9585;51.018;4.282;2023-02-03T06:53:13;8.40;99.90
18906;DHT22;9585;51.018;4.282;2023-02-03T06:55:40;8.50;99.90
18906;DHT22;9585;51.018;4.282;2023-02-03T06:58:07;8.50;99.90
18906;DHT22;9585;51.018;4.282;2023-02-03T07:00:35;8.50;99.90
18906;DHT22;9585;51.018;4.282;2023-02-03T07:03:02;8.60;99.90
18906;DHT22;9585;51.018;4.282;2023-02-03T07:05:29;8.60;99.90
18906;DHT22;9585;51.018;4.282;2023-02-03T07:07:56;8.60;99.90
18906;DHT22;9585;51.018;4.282;2023-02-03T07:10:25;8.60;99.90
18906;DHT22;9585;51.018;4.282;2023-02-03T07:12:52;8.60;99.90
18906;DHT22;9585;51.018;4.282;2023-02-03T07:15:19;8.60;99.90
18906;DHT22;9585;51.018;4.282;2023-02-03T07:17:47;8.60;99.90
18906;DHT22;9585;51.018;4.282;2023-02-03T07:20:20;8.70;99.90
18906;DHT22;9585;51.018;4.282;2023-02-03T07:22:51;8.70;99.90
18906;DHT22;9585;51.018;4.282;2023-02-03T07:25:18;8.70;99.90
18906;DHT22;9585;51.018;4.282;2023-02-03T07:27:48;8.70;99.90
18906;DHT22;9585;51.018;4.282;2023-02-03T07:30:15;8.70;99.90
18906;DHT22;9585;51.018;4.282;2023-02-03T07:32:46;8.80;99.90
18906;DHT22;9585;51.018;4.282;2023-02-03T07:35:14;8.70;99.90
18906;DHT22;9585;51.018;4.282;2023-02-03T07:37:42;8.70;99.90
18906;DHT22;9585;51.018;4.282;2023-02-03T07:40:10;8.70;99.90
18906;DHT22;9585;51.018;4.282;2023-02-03T07:42:40;8.80;99.90
18906;DHT22;9585;51.018;4.282;2023-02-03T07:45:11;8.70;99.90
18906;DHT22;9585;51.018;4.282;2023-02-03T07:47:40;8.80;99.90
18906;DHT22;9585;51.018;4.282;2023-02-03T07:50:08;8.80;99.90
18906;DHT22;9585;51.018;4.282;2023-02-03T07:52:36;8.80;99.90
18906;DHT22;9585;51.018;4.282;2023-02-03T07:55:03;8.90;99.90
18906;DHT22;9585;51.018;4.282;2023-02-03T07:57:31;8.80;99.90
18906;DHT22;9585;51.018;4.282;2023-02-03T07:59:58;8.80;99.90
18906;DHT22;9585;51.018;4.282;2023-02-03T08:02:27;8.80;99.90
18906;DHT22;9585;51.018;4.282;2023-02-03T08:04:54;8.80;99.90
18906;DHT22;9585;51.018;4.282;2023-02-03T08:07:22;8.90;99.90
18906;DHT22;9585;51.018;4.282;2023-02-03T08:09:50;8.90;99.90
18906;DHT22;9585;51.018;4.282;2023-02-03T08:12:17;8.90;99.90
18906;DHT22;9585;51.018;4.282;2023-02-03T08:14:44;8.90;99.90
18906;DHT22;9585;51.018;4.282;2023-02-03T08:17:11;9.00;99.90
18906;DHT22;9585;51.018;4.282;2023-02-03T08:19:40;9.00;99.90
18906;DHT22;9585;51.018;4.282;2023-02-03T08:22:08;9.00;99.90
18906;DHT22;9585;51.018;4.282;2023-02-03T08:24:40;9.00;99.90
18906;DHT22;9585;51.018;4.282;2023-02-03T08:27:10;9.00;99.90
18906;DHT22;9585;51.018;4.282;2023-02-03T08:29:38;9.00;99.90
18906;DHT22;9585;51.018;4.282;2023-02-03T08:32:08;9.00;99.90
18906;DHT22;9585;51.018;4.282;2023-02-03T08:34:36;9.10;99.90
18906;DHT22;9585;51.018;4.282;2023-02-03T08:37:05;9.10;99.90
18906;DHT22;9585;51.018;4.282;2023-02-03T08:39:33;9.10;99.90
18906;DHT22;9585;51.018;4.282;2023-02-03T08:42:00;9.10;99.90
18906;DHT22;9585;51.018;4.282;2023-02-03T08:44:29;9.20;99.90
18906;DHT22;9585;51.018;4.282;2023-02-03T08:46:59;9.20;99.90
18906;DHT22;9585;51.018;4.282;2023-02-03T08:49:28;9.20;99.90
18906;DHT22;9585;51.018;4.282;2023-02-03T08:51:57;9.20;99.90
18906;DHT22;9585;51.018;4.282;2023-02-03T08:54:26;9.10;99.90
18906;DHT22;9585;51.018;4.282;2023-02-03T08:56:53;9.10;99.90
18906;DHT22;9585;51.018;4.282;2023-02-03T08:59:20;9.20;99.90
18906;DHT22;9585;51.018;4.282;2023-02-03T09:01:48;9.20;99.90
18906;DHT22;9585;51.018;4.282;2023-02-03T09:04:16;9.30;99.90
18906;DHT22;9585;51.018;4.282;2023-02-03T09:06:44;9.40;99.90
18906;DHT22;9585;51.018;4.282;2023-02-03T09:09:12;9.30;99.90
18906;DHT22;9585;51.018;4.282;2023-02-03T09:11:42;9.20;99.90
18906;DHT22;9585;51.018;4.282;2023-02-03T09:14:12;9.20;99.90
18906;DHT22;9585;51.018;4.282;2023-02-03T09:16:40;9.20;99.90
18906;DHT22;9585;51.018;4.282;2023-02-03T09:19:08;9.10;99.90
18906;DHT22;9585;51.018;4.282;2023-02-03T09:21:35;9.20;99.90
18906;DHT22;9585;51.018;4.282;2023-02-03T09:24:03;9.20;99.90
18906;DHT22;9585;51.018;4.282;2023-02-03T09:26:30;9.30;99.90
18906;DHT22;9585;51.018;4.282;2023-02-03T09:28:59;9.30;99.90
18906;DHT22;9585;51.018;4.282;2023-02-03T09:31:26;9.40;99.90
18906;DHT22;9585;51.018;4.282;2023-02-03T09:33:53;9.40;99.90
18906;DHT22;9585;51.018;4.282;2023-02-03T09:36:20;9.40;99.90
18906;DHT22;9585;51.018;4.282;2023-02-03T09:38:48;9.50;99.90
18906;DHT22;9585;51.018;4.282;2023-02-03T09:41:25;9.50;99.90
18906;DHT22;9585;51.018;4.282;2023-02-03T09:44:02;9.50;99.90
18906;DHT22;9585;51.018;4.282;2023-02-03T09:46:34;9.40;99.90
18906;DHT22;9585;51.018;4.282;2023-02-03T09:49:11;9.30;99.90
18906;DHT22;9585;51.018;4.282;2023-02-03T09:51:45;9.40;99.90
18906;DHT22;9585;51.018;4.282;2023-02-03T09:54:18;9.50;99.90
18906;DHT22;9585;51.018;4.282;2023-02-03T09:56:47;9.60;99.90
18906;DHT22;9585;51.018;4.282;2023-02-03T09:59:18;9.80;99.90
18906;DHT22;9585;51.018;4.282;2023-02-03T10:01:51;9.80;99.90
18906;DHT22;9585;51.018;4.282;2023-02-03T10:04:26;9.90;99.90
18906;DHT22;9585;51.018;4.282;2023-02-03T10:07:01;10.10;99.90
18906;DHT22;9585;51.018;4.282;2023-02-03T10:09:43;10.20;99.90
18906;DHT22;9585;51.018;4.282;2023-02-03T10:12:43;10.40;99.90
18906;DHT22;9585;51.018;4.282;2023-02-03T10:15:26;10.60;99.90
18906;DHT22;9585;51.018;4.282;2023-02-03T10:18:01;10.50;99.90
18906;DHT22;9585;51.018;4.282;2023-02-03T10:20:34;10.60;99.90
18906;DHT22;9585;51.018;4.282;2023-02-03T10:23:11;10.60;99.90
18906;DHT22;9585;51.018;4.282;2023-02-03T10:25:41;10.40;99.90
18906;DHT22;9585;51.018;4.282;2023-02-03T10:28:13;10.50;99.90
18906;DHT22;9585;51.018;4.282;2023-02-03T10:30:47;10.50;99.90
18906;DHT22;9585;51.018;4.282;2023-02-03T10:33:16;10.50;99.90
18906;DHT22;9585;51.018;4.282;2023-02-03T10:35:48;10.40;99.90
18906;DHT22;9585;51.018;4.282;2023-02-03T10:38:31;10.40;99.90
18906;DHT22;9585;51.018;4.282;2023-02-03T10:41:01;10.40;99.90
18906;DHT22;9585;51.018;4.282;2023-02-03T10:43:31;10.20;99.90
18906;DHT22;9585;51.018;4.282;2023-02-03T10:46:19;10.20;99.90
18906;DHT22;9585;51.018;4.282;2023-02-03T10:48:50;10.30;99.90
18906;DHT22;9585;51.018;4.282;2023-02-03T10:51:20;10.40;99.90
18906;DHT22;9585;51.018;4.282;2023-02-03T10:53:48;10.40;99.90
18906;DHT22;9585;51.018;4.282;2023-02-03T10:56:20;10.40;99.90
18906;DHT22;9585;51.018;4.282;2023-02-03T10:58:50;10.40;99.90
18906;DHT22;9585;51.018;4.282;2023-02-03T11:01:22;10.40;99.90
18906;DHT22;9585;51.018;4.282;2023-02-03T11:03:59;10.30;99.90
18906;DHT22;9585;51.018;4.282;2023-02-03T11:06:28;10.20;99.90
18906;DHT22;9585;51.018;4.282;2023-02-03T11:08:56;10.20;99.90
18906;DHT22;9585;51.018;4.282;2023-02-03T11:11:25;10.20;99.90
18906;DHT22;9585;51.018;4.282;2023-02-03T11:13:54;10.10;99.90
18906;DHT22;9585;51.018;4.282;2023-02-03T11:16:24;10.10;99.90
18906;DHT22;9585;51.018;4.282;2023-02-03T11:18:56;10.00;99.90
18906;DHT22;9585;51.018;4.282;2023-02-03T11:21:27;9.90;99.90
18906;DHT22;9585;51.018;4.282;2023-02-03T11:24:01;9.90;99.90
18906;DHT22;9585;51.018;4.282;2023-02-03T11:26:32;9.90;99.90
18906;DHT22;9585;51.018;4.282;2023-02-03T11:29:02;9.90;99.90
18906;DHT22;9585;51.018;4.282;2023-02-03T11:31:34;10.00;99.90
18906;DHT22;9585;51.018;4.282;2023-02-03T11:34:04;10.00;99.90
18906;DHT22;9585;51.018;4.282;2023-02-03T11:36:33;10.00;99.90
18906;DHT22;9585;51.018;4.282;2023-02-03T11:39:26;10.10;99.90
18906;DHT22;9585;51.018;4.282;2023-02-03T11:41:54;10.20;99.90
18906;DHT22;9585;51.018;4.282;2023-02-03T11:44:24;10.20;99.90
18906;DHT22;9585;51.018;4.282;2023-02-03T11:46:59;10.20;99.90
18906;DHT22;9585;51.018;4.282;2023-02-03T11:52:49;10.20;99.90
18906;DHT22;9585;51.018;4.282;2023-02-03T11:55:29;10.20;99.90
18906;DHT22;9585;51.018;4.282;2023-02-03T11:58:19;10.10;99.90
18906;DHT22;9585;51.018;4.282;2023-02-03T12:00:58;10.10;99.90
18906;DHT22;9585;51.018;4.282;2023-02-03T12:03:52;10.10;99.90
18906;DHT22;9585;51.018;4.282;2023-02-03T12:06:34;10.30;99.90
18906;DHT22;9585;51.018;4.282;2023-02-03T12:09:16;10.30;99.90
18906;DHT22;9585;51.018;4.282;2023-02-03T12:12:06;10.30;99.90
18906;DHT22;9585;51.018;4.282;2023-02-03T12:14:49;10.40;99.90
18906;DHT22;9585;51.018;4.282;2023-02-03T12:17:48;10.40;99.90
18906;DHT22;9585;51.018;4.282;2023-02-03T12:20:37;10.40;99.90
18906;DHT22;9585;51.018;4.282;2023-02-03T12:23:15;10.40;99.90
18906;DHT22;9585;51.018;4.282;2023-02-03T12:25:57;10.30;99.90
18906;DHT22;9585;51.018;4.282;2023-02-03T12:28:40;10.30;99.90
18906;DHT22;9585;51.018;4.282;2023-02-03T12:31:13;10.30;99.90
18906;DHT22;9585;51.018;4.282;2023-02-03T12:33:43;10.30;99.90
18906;DHT22;9585;51.018;4.282;2023-02-03T12:36:17;10.30;99.90
18906;DHT22;9585;51.018;4.282;2023-02-03T12:38:49;10.30;99.90
18906;DHT22;9585;51.018;4.282;2023-02-03T12:41:24;10.30;99.90
18906;DHT22;9585;51.018;4.282;2023-02-03T12:43:56;10.40;99.90
18906;DHT22;9585;51.018;4.282;2023-02-03T12:46:28;10.40;99.90
18906;DHT22;9585;51.018;4.282;2023-02-03T12:49:01;10.30;99.90
18906;DHT22;9585;51.018;4.282;2023-02-03T12:51:40;10.30;99.90
18906;DHT22;9585;51.018;4.282;2023-02-03T12:54:29;10.40;99.90
18906;DHT22;9585;51.018;4.282;2023-02-03T12:57:18;10.50;99.90
18906;DHT22;9585;51.018;4.282;2023-02-03T12:59:59;10.50;99.90
18906;DHT22;9585;51.018;4.282;2023-02-03T13:02:30;10.50;99.90
18906;DHT22;9585;51.018;4.282;2023-02-03T13:05:06;10.50;99.90
18906;DHT22;9585;51.018;4.282;2023-02-03T13:07:40;10.50;99.90
18906;DHT22;9585;51.018;4.282;2023-02-03T13:10:16;10.40;99.90
18906;DHT22;9585;51.018;4.282;2023-02-03T13:12:49;10.40;99.90
18906;DHT22;9585;51.018;4.282;2023-02-03T13:15:26;10.50;99.90
18906;DHT22;9585;51.018;4.282;2023-02-03T13:17:57;10.40;99.90
18906;DHT22;9585;51.018;4.282;2023-02-03T13:20:28;10.50;99.90
18906;DHT22;9585;51.018;4.282;2023-02-03T13:22:58;10.60;99.90
18906;DHT22;9585;51.018;4.282;2023-02-03T13:25:30;10.60;99.90
18906;DHT22;9585;51.018;4.282;2023-02-03T13:28:08;10.70;99.90
18906;DHT22;9585;51.018;4.282;2023-02-03T13:31:06;10.70;99.90
18906;DHT22;9585;51.018;4.282;2023-02-03T13:33:50;10.70;99.90
18906;DHT22;9585;51.018;4.282;2023-02-03T13:39:46;10.70;99.90
18906;DHT22;9585;51.018;4.282;2023-02-03T13:42:23;10.60;99.90
18906;DHT22;9585;51.018;4.282;2023-02-03T13:44:54;10.60;99.90
18906;DHT22;9585;51.018;4.282;2023-02-03T13:47:27;10.70;99.90
18906;DHT22;9585;51.018;4.282;2023-02-03T13:49:58;10.70;99.90
18906;DHT22;9585;51.018;4.282;2023-02-03T13:52:32;10.70;99.90
18906;DHT22;9585;51.018;4.282;2023-02-03T13:55:02;10.70;99.90
18906;DHT22;9585;51.018;4.282;2023-02-03T13:57:35;10.80;99.90
18906;DHT22;9585;51.018;4.282;2023-02-03T14:00:05;10.90;99.90
18906;DHT22;9585;51.018;4.282;2023-02-03T14:02:43;10.90;99.90
18906;DHT22;9585;51.018;4.282;2023-02-03T14:05:43;10.80;99.90
18906;DHT22;9585;51.018;4.282;2023-02-03T14:11:45;10.50;99.90
18906;DHT22;9585;51.018;4.282;2023-02-03T14:14:44;10.50;99.90
18906;DHT22;9585;51.018;4.282;2023-02-03T14:23:41;10.50;99.90
18906;DHT22;9585;51.018;4.282;2023-02-03T14:26:20;10.50;99.90
18906;DHT22;9585;51.018;4.282;2023-02-03T14:28:50;10.40;99.90
18906;DHT22;9585;51.018;4.282;2023-02-03T14:31:19;10.40;99.90
18906;DHT22;9585;51.018;4.282;2023-02-03T14:33:53;10.50;99.90
18906;DHT22;9585;51.018;4.282;2023-02-03T14:42:44;10.50;99.90
18906;DHT22;9585;51.018;4.282;2023-02-03T14:45:33;10.50;99.90
18906;DHT22;9585;51.018;4.282;2023-02-03T14:48:14;10.50;99.90
18906;DHT22;9585;51.018;4.282;2023-02-03T14:50:55;10.50;99.90
18906;DHT22;9585;51.018;4.282;2023-02-03T14:53:49;10.40;99.90
18906;DHT22;9585;51.018;4.282;2023-02-03T14:56:30;10.40;99.90
18906;DHT22;9585;51.018;4.282;2023-02-03T14:59:27;10.50;99.90
18906;DHT22;9585;51.018;4.282;2023-02-03T15:02:15;10.40;99.90
18906;DHT22;9585;51.018;4.282;2023-02-03T15:04:44;10.40;99.90
18906;DHT22;9585;51.018;4.282;2023-02-03T15:07:42;10.40;99.90
18906;DHT22;9585;51.018;4.282;2023-02-03T15:10:16;10.40;99.90
18906;DHT22;9585;51.018;4.282;2023-02-03T15:12:47;10.50;99.90
18906;DHT22;9585;51.018;4.282;2023-02-03T15:15:20;10.60;99.90
18906;DHT22;9585;51.018;4.282;2023-02-03T15:17:50;10.60;99.90
18906;DHT22;9585;51.018;4.282;2023-02-03T15:20:32;10.40;99.90
18906;DHT22;9585;51.018;4.282;2023-02-03T15:22:59;10.40;99.90
18906;DHT22;9585;51.018;4.282;2023-02-03T15:25:29;10.40;99.90
18906;DHT22;9585;51.018;4.282;2023-02-03T15:28:10;10.40;99.90
18906;DHT22;9585;51.018;4.282;2023-02-03T15:30:38;10.40;99.90
18906;DHT22;9585;51.018;4.282;2023-02-03T15:33:10;10.40;99.90
18906;DHT22;9585;51.018;4.282;2023-02-03T15:35:41;10.40;99.90
18906;DHT22;9585;51.018;4.282;2023-02-03T15:38:13;10.40;99.90
18906;DHT22;9585;51.018;4.282;2023-02-03T15:40:43;10.40;99.90
18906;DHT22;9585;51.018;4.282;2023-02-03T15:43:17;10.30;99.90
18906;DHT22;9585;51.018;4.282;2023-02-03T15:45:54;10.30;99.90
18906;DHT22;9585;51.018;4.282;2023-02-03T15:48:30;10.30;99.90
18906;DHT22;9585;51.018;4.282;2023-02-03T15:51:06;10.40;99.90
18906;DHT22;9585;51.018;4.282;2023-02-03T15:53:39;10.20;99.90
18906;DHT22;9585;51.018;4.282;2023-02-03T15:56:16;10.30;99.90
18906;DHT22;9585;51.018;4.282;2023-02-03T15:58:45;10.20;99.90
18906;DHT22;9585;51.018;4.282;2023-02-03T16:01:13;10.10;99.90
18906;DHT22;9585;51.018;4.282;2023-02-03T16:03:45;10.20;99.90
18906;DHT22;9585;51.018;4.282;2023-02-03T16:06:17;10.10;99.90
18906;DHT22;9585;51.018;4.282;2023-02-03T16:08:46;10.00;99.90
18906;DHT22;9585;51.018;4.282;2023-02-03T16:11:24;10.00;99.90
18906;DHT22;9585;51.018;4.282;2023-02-03T16:13:52;10.10;99.90
18906;DHT22;9585;51.018;4.282;2023-02-03T16:16:23;10.10;99.90
18906;DHT22;9585;51.018;4.282;2023-02-03T16:18:55;10.20;99.90
18906;DHT22;9585;51.018;4.282;2023-02-03T16:21:27;10.20;99.90
18906;DHT22;9585;51.018;4.282;2023-02-03T16:23:55;10.10;99.90
18906;DHT22;9585;51.018;4.282;2023-02-03T16:26:24;10.10;99.90
18906;DHT22;9585;51.018;4.282;2023-02-03T16:29:13;9.90;99.90
18906;DHT22;9585;51.018;4.282;2023-02-03T16:31:58;9.80;99.90
18906;DHT22;9585;51.018;4.282;2023-02-03T16:34:44;9.70;99.90
18906;DHT22;9585;51.018;4.282;2023-02-03T16:37:30;9.70;99.90
18906;DHT22;9585;51.018;4.282;2023-02-03T16:40:18;9.70;99.90
18906;DHT22;9585;51.018;4.282;2023-02-03T16:43:04;9.70;99.90
18906;DHT22;9585;51.018;4.282;2023-02-03T16:45:56;9.70;99.90
18906;DHT22;9585;51.018;4.282;2023-02-03T16:48:42;9.60;99.90
18906;DHT22;9585;51.018;4.282;2023-02-03T16:51:34;9.50;99.90
18906;DHT22;9585;51.018;4.282;2023-02-03T16:54:03;9.50;99.90
18906;DHT22;9585;51.018;4.282;2023-02-03T16:56:30;9.50;99.90
18906;DHT22;9585;51.018;4.282;2023-02-03T16:58:57;9.40;99.90
18906;DHT22;9585;51.018;4.282;2023-02-03T17:01:24;9.40;99.90
18906;DHT22;9585;51.018;4.282;2023-02-03T17:03:52;9.40;99.90
18906;DHT22;9585;51.018;4.282;2023-02-03T17:06:19;9.40;99.90
18906;DHT22;9585;51.018;4.282;2023-02-03T17:08:48;9.50;99.90
18906;DHT22;9585;51.018;4.282;2023-02-03T17:11:16;9.40;99.90